Whipple, Ohio
Current Conditions -  °F | °C
As of 11:53 PM on Wednesday 22 Oct 2014 (Local Time) from KPKB Reporting Station
Overcast Overcast  
Wind Chill: 45°   Ceiling: 2800
Heat Index: 48°   Visibility: 10mi
Dew Point: 41°   Wind: 7mph
Humidity: 77%   Direction: 310°NW
Pressure: 30.24"   Gusts: NA
Location:  39.52°N, 81.41°W
Report Text: KPKB 230353Z AUTO 31006KT 10SM OVC028 09/05 A3024 RMK AO2 SLP240 T00890050
Loading
Personal Weather Stations






























Interactive Weather Map
Tropical Storm Tracking
New forecast layout! Learn more

10-Day Weather Forecast

Advertisements
Track Severe Weather on mobile